Time;durP1;ratioP1;P1;durP2;ratioP2;P2;SDS_P1;SDS_P2;PMS_P1;PMS_P2;Temp;Humidity;BMP_temperature;BMP_pressure;BME280_temperature;BME280_humidity;BME280_pressure;Samples;Min_cycle;Max_cycle;Signal;HPM_P1;HPM_P2
2023/05/09 00:00:27;;;;;;;7.38;6.00;;;9.90;99.90;;;;;;2092685;28;20086;-70
2023/05/09 00:01:30;;;;;;;9.30;6.20;;;9.90;99.90;;;;;;2090654;28;20044;-70
2023/05/09 00:02:33;;;;;;;8.13;5.93;;;9.90;99.90;;;;;;2083436;28;20045;-70
2023/05/09 00:03:33;;;;;;;8.82;5.97;;;9.90;99.90;;;;;;2099499;28;20040;-70
2023/05/09 00:04:34;;;;;;;8.25;6.20;;;9.90;99.90;;;;;;2094114;28;20087;-70
2023/05/09 00:05:35;;;;;;;8.30;5.88;;;9.90;99.90;;;;;;2098235;28;20106;-70
2023/05/09 00:06:36;;;;;;;9.70;6.10;;;9.90;99.90;;;;;;2098628;28;20305;-70
2023/05/09 00:07:37;;;;;;;8.52;5.95;;;9.90;99.90;;;;;;2099034;28;20040;-70
2023/05/09 00:08:37;;;;;;;8.15;5.85;;;9.90;99.90;;;;;;2101262;28;20427;-70
2023/05/09 00:09:38;;;;;;;7.07;5.90;;;9.90;99.90;;;;;;2084610;28;20039;-70
2023/05/09 00:10:39;;;;;;;8.18;5.95;;;9.90;99.90;;;;;;2092763;28;20032;-70
2023/05/09 00:11:40;;;;;;;8.85;5.68;;;9.90;99.90;;;;;;2094058;28;20024;-69
2023/05/09 00:12:42;;;;;;;6.90;5.80;;;9.90;99.90;;;;;;2100786;28;20693;-68
2023/05/09 00:13:43;;;;;;;8.95;6.07;;;9.90;99.90;;;;;;2100381;28;20115;-72
2023/05/09 00:14:44;;;;;;;7.63;5.93;;;9.80;99.90;;;;;;2092124;28;20021;-69
2023/05/09 00:15:45;;;;;;;8.48;5.97;;;9.90;99.90;;;;;;2095838;28;20024;-68
2023/05/09 00:16:46;;;;;;;8.10;6.13;;;9.90;99.90;;;;;;2100822;28;20079;-69
2023/05/09 00:17:46;;;;;;;10.00;6.00;;;9.80;99.90;;;;;;2093836;28;20454;-69
2023/05/09 00:18:47;;;;;;;9.18;5.90;;;9.90;99.90;;;;;;2095103;28;20446;-70
2023/05/09 00:19:48;;;;;;;7.20;6.00;;;9.80;99.90;;;;;;2097456;28;20052;-69
2023/05/09 00:20:49;;;;;;;9.57;6.10;;;9.80;99.90;;;;;;2100098;28;20020;-69
2023/05/09 00:21:50;;;;;;;6.82;5.43;;;9.80;99.90;;;;;;2099786;28;20111;-69
2023/05/09 00:22:51;;;;;;;7.45;6.22;;;9.80;99.90;;;;;;2094796;28;20016;-69
2023/05/09 00:23:51;;;;;;;8.00;6.20;;;9.80;99.90;;;;;;2101630;28;20283;-69
2023/05/09 00:24:52;;;;;;;7.85;6.15;;;9.80;99.90;;;;;;2099865;28;20143;-70
2023/05/09 00:25:52;;;;;;;9.38;6.25;;;9.80;99.90;;;;;;2101433;28;20035;-68
2023/05/09 00:26:53;;;;;;;6.60;5.90;;;9.80;99.90;;;;;;2098189;28;20035;-69
2023/05/09 00:27:54;;;;;;;7.63;5.70;;;9.80;99.90;;;;;;2102492;28;20031;-69
2023/05/09 00:28:54;;;;;;;6.28;5.57;;;9.80;99.90;;;;;;2098065;28;20111;-69
2023/05/09 00:29:55;;;;;;;8.43;5.75;;;9.70;99.90;;;;;;2099622;28;20029;-68
2023/05/09 00:30:56;;;;;;;8.35;6.18;;;9.70;99.90;;;;;;2101910;28;20044;-69
2023/05/09 00:31:56;;;;;;;7.60;5.85;;;9.70;99.90;;;;;;2103375;28;20039;-68
2023/05/09 00:32:57;;;;;;;8.23;6.30;;;9.70;99.90;;;;;;2101951;28;20020;-69
2023/05/09 00:33:58;;;;;;;8.30;6.03;;;9.70;99.90;;;;;;2100649;28;20104;-69
2023/05/09 00:34:58;;;;;;;9.02;6.10;;;9.70;99.90;;;;;;2100932;28;20039;-69
2023/05/09 00:35:59;;;;;;;8.40;5.93;;;9.70;99.90;;;;;;2105098;28;20030;-70
2023/05/09 00:37:00;;;;;;;7.00;5.70;;;9.70;99.90;;;;;;2098185;28;20138;-69
2023/05/09 00:38:00;;;;;;;6.90;5.60;;;9.60;99.90;;;;;;2097917;28;20028;-69
2023/05/09 00:39:01;;;;;;;8.38;5.75;;;9.60;99.90;;;;;;2090993;28;20172;-69
2023/05/09 00:40:04;;;;;;;7.45;5.97;;;9.60;99.90;;;;;;2092712;28;20101;-70
2023/05/09 00:41:04;;;;;;;8.18;6.00;;;9.60;99.90;;;;;;2091936;28;20362;-69
2023/05/09 00:42:05;;;;;;;8.00;5.90;;;9.60;99.90;;;;;;2099600;28;20055;-70
2023/05/09 00:43:06;;;;;;;9.63;5.72;;;9.60;99.90;;;;;;2099927;28;20104;-70
2023/05/09 00:44:07;;;;;;;10.57;6.00;;;9.60;99.90;;;;;;2102459;28;20137;-69
2023/05/09 00:45:08;;;;;;;9.75;6.63;;;9.60;99.90;;;;;;2097669;28;20075;-69
2023/05/09 00:46:09;;;;;;;10.15;6.25;;;9.70;99.90;;;;;;2104074;28;20123;-70
2023/05/09 00:47:09;;;;;;;13.05;6.25;;;9.60;99.90;;;;;;2092202;28;20036;-69
2023/05/09 00:48:10;;;;;;;8.38;6.53;;;9.60;99.90;;;;;;2094210;28;20481;-70
2023/05/09 00:49:11;;;;;;;8.32;6.07;;;9.60;99.90;;;;;;2099101;28;20111;-70
2023/05/09 00:50:12;;;;;;;10.85;6.10;;;9.60;99.90;;;;;;2097401;28;20114;-70
2023/05/09 00:51:13;;;;;;;10.30;6.18;;;9.60;99.90;;;;;;2095987;28;20237;-70
2023/05/09 00:52:14;;;;;;;9.30;6.22;;;9.60;99.90;;;;;;2101944;28;20052;-69
2023/05/09 00:53:15;;;;;;;6.70;5.57;;;9.60;99.90;;;;;;2096910;28;20387;-70
2023/05/09 00:54:15;;;;;;;9.43;6.13;;;9.60;99.90;;;;;;2091722;28;20033;-69
2023/05/09 00:55:17;;;;;;;8.07;6.05;;;9.50;99.90;;;;;;2101130;28;20028;-69
2023/05/09 00:56:18;;;;;;;9.27;6.40;;;9.50;99.90;;;;;;2104273;28;20100;-69
2023/05/09 00:57:19;;;;;;;10.73;5.88;;;9.50;99.90;;;;;;2105158;28;20044;-69
2023/05/09 00:58:20;;;;;;;8.60;6.35;;;9.50;99.90;;;;;;2094226;28;20036;-70
2023/05/09 00:59:20;;;;;;;10.45;6.68;;;9.50;99.90;;;;;;2102191;28;20016;-70
2023/05/09 01:00:21;;;;;;;9.88;6.10;;;9.50;99.90;;;;;;2103071;28;20499;-70
2023/05/09 01:01:22;;;;;;;8.98;6.20;;;9.40;99.90;;;;;;2105824;28;20503;-70
2023/05/09 01:02:22;;;;;;;10.45;6.43;;;9.50;99.90;;;;;;2094026;28;20104;-70
2023/05/09 01:03:23;;;;;;;8.52;6.38;;;9.40;99.90;;;;;;2103854;28;20032;-70
2023/05/09 01:04:24;;;;;;;9.45;6.50;;;9.40;99.90;;;;;;2104493;28;20510;-70
2023/05/09 01:05:31;;;;;;;7.57;6.10;;;9.40;99.90;;;;;;2104509;28;20028;-70
2023/05/09 01:06:42;;;;;;;7.93;6.07;;;9.40;99.90;;;;;;2100846;28;20035;-70
2023/05/09 01:07:51;;;;;;;7.80;6.28;;;9.40;99.90;;;;;;2099549;28;20114;-70
2023/05/09 01:09:01;;;;;;;9.15;6.13;;;9.40;99.90;;;;;;2102937;28;20436;-70
2023/05/09 01:10:07;;;;;;;7.20;6.30;;;9.30;99.90;;;;;;2099561;28;20605;-70
2023/05/09 01:11:33;;;;;;;9.00;6.40;;;9.30;99.90;;;;;;2104205;28;20035;-71
2023/05/09 01:12:44;;;;;;;8.02;6.43;;;9.30;99.90;;;;;;2097802;28;20048;-70
2023/05/09 01:14:07;;;;;;;7.38;6.55;;;9.30;99.90;;;;;;2088967;28;20595;-70
2023/05/09 01:15:16;;;;;;;12.73;6.57;;;9.30;99.90;;;;;;2097745;28;20266;-70
2023/05/09 01:16:35;;;;;;;8.10;5.90;;;9.20;99.90;;;;;;2095988;28;20572;-70
2023/05/09 01:17:50;;;;;;;9.18;6.47;;;9.20;99.90;;;;;;2099855;28;20089;-71
2023/05/09 01:19:18;;;;;;;11.38;6.35;;;9.20;99.90;;;;;;2102809;28;20116;-70
2023/05/09 01:20:32;;;;;;;8.52;6.35;;;9.20;99.90;;;;;;2097490;28;20505;-69
2023/05/09 01:21:34;;;;;;;10.00;6.40;;;9.20;99.90;;;;;;2101684;28;20011;-70
2023/05/09 01:22:36;;;;;;;10.75;6.65;;;9.20;99.90;;;;;;2105661;28;20056;-70
2023/05/09 01:23:43;;;;;;;8.43;6.40;;;9.20;99.90;;;;;;2102913;28;20034;-70
2023/05/09 01:25:18;;;;;;;9.10;7.03;;;9.20;99.90;;;;;;2102148;28;20308;-69
2023/05/09 01:26:40;;;;;;;8.85;6.22;;;9.20;99.90;;;;;;2098027;28;20028;-69
2023/05/09 01:27:52;;;;;;;11.45;6.72;;;9.20;99.90;;;;;;2097509;28;20032;-70
2023/05/09 01:29:18;;;;;;;10.93;6.60;;;9.20;99.90;;;;;;2095266;28;20396;-70
2023/05/09 01:30:19;;;;;;;10.70;6.88;;;9.20;99.90;;;;;;2101321;28;20094;-69
2023/05/09 01:31:21;;;;;;;8.48;6.68;;;9.10;99.90;;;;;;2102882;28;20506;-69
2023/05/09 01:32:26;;;;;;;7.88;6.43;;;9.10;99.90;;;;;;2093308;28;20048;-69
2023/05/09 01:33:30;;;;;;;7.78;6.50;;;9.10;99.90;;;;;;2097375;28;20046;-69
2023/05/09 01:34:32;;;;;;;8.38;6.72;;;9.10;99.90;;;;;;2098525;28;20033;-69
2023/05/09 01:35:36;;;;;;;10.63;6.57;;;9.10;99.90;;;;;;2105727;28;20046;-69
2023/05/09 01:36:41;;;;;;;10.73;6.32;;;9.10;99.90;;;;;;2096606;28;20474;-69
2023/05/09 01:37:43;;;;;;;10.32;6.55;;;9.10;99.90;;;;;;2096913;28;20024;-69
2023/05/09 01:38:49;;;;;;;8.55;6.68;;;9.10;99.90;;;;;;2104015;28;20028;-69
2023/05/09 01:39:54;;;;;;;10.98;6.50;;;9.10;99.90;;;;;;2096496;28;20390;-70
2023/05/09 01:40:57;;;;;;;10.63;6.63;;;9.10;99.90;;;;;;2104316;28;20036;-69
2023/05/09 01:42:01;;;;;;;9.82;6.38;;;9.00;99.90;;;;;;2103477;28;20107;-69
2023/05/09 01:43:07;;;;;;;11.13;6.75;;;9.00;99.90;;;;;;2095249;28;20032;-69
2023/05/09 01:44:11;;;;;;;8.38;6.22;;;9.00;99.90;;;;;;2093889;28;20082;-70
2023/05/09 01:45:12;;;;;;;8.98;6.72;;;9.00;99.90;;;;;;2105934;28;20040;-69
2023/05/09 01:46:16;;;;;;;11.55;6.82;;;9.00;99.90;;;;;;2101706;28;20267;-70
2023/05/09 01:47:19;;;;;;;10.75;6.45;;;9.00;99.90;;;;;;2102344;28;20071;-70
2023/05/09 01:48:25;;;;;;;9.15;6.60;;;9.00;99.90;;;;;;2093652;28;20028;-70
2023/05/09 01:49:29;;;;;;;7.53;6.28;;;9.00;99.90;;;;;;2094237;28;20154;-69
2023/05/09 01:50:31;;;;;;;9.02;6.43;;;9.00;99.90;;;;;;2101312;28;20408;-70
2023/05/09 01:51:33;;;;;;;12.80;7.30;;;9.00;99.90;;;;;;2094200;28;20032;-69
2023/05/09 01:52:35;;;;;;;9.82;6.32;;;9.00;99.90;;;;;;2096193;28;20106;-69
2023/05/09 01:53:36;;;;;;;10.30;6.22;;;9.00;99.90;;;;;;2095912;28;20036;-70
2023/05/09 01:54:38;;;;;;;8.40;6.60;;;8.90;99.90;;;;;;2086127;28;20059;-69
2023/05/09 01:55:39;;;;;;;8.02;6.30;;;9.00;99.90;;;;;;2095087;28;20135;-70
2023/05/09 01:56:42;;;;;;;9.07;6.35;;;9.00;99.90;;;;;;2094763;28;20485;-66
2023/05/09 01:57:44;;;;;;;12.00;7.00;;;8.90;99.90;;;;;;2083317;28;20196;-70
2023/05/09 01:58:47;;;;;;;10.45;6.32;;;8.90;99.90;;;;;;2093773;28;20502;-70
2023/05/09 01:59:49;;;;;;;8.82;6.55;;;8.90;99.90;;;;;;2102165;28;20058;-70
2023/05/09 02:00:50;;;;;;;7.95;6.38;;;8.90;99.90;;;;;;2092752;28;20498;-69
2023/05/09 02:01:53;;;;;;;11.63;6.28;;;8.90;99.90;;;;;;2092079;28;20432;-70
2023/05/09 02:02:56;;;;;;;11.13;7.10;;;8.80;99.90;;;;;;2094551;28;20028;-69
2023/05/09 02:03:57;;;;;;;12.18;6.50;;;8.90;99.90;;;;;;2078109;28;20029;-70
2023/05/09 02:04:59;;;;;;;10.38;6.60;;;8.90;99.90;;;;;;2091856;28;20020;-70
2023/05/09 02:06:02;;;;;;;8.90;6.50;;;8.80;99.90;;;;;;2101282;28;20102;-70
2023/05/09 02:07:05;;;;;;;8.98;6.88;;;8.80;99.90;;;;;;2102877;28;20011;-71
2023/05/09 02:08:07;;;;;;;9.35;6.75;;;8.80;99.90;;;;;;2095122;28;20039;-69
2023/05/09 02:09:08;;;;;;;12.88;6.90;;;8.80;99.90;;;;;;2098950;28;20034;-69
2023/05/09 02:10:09;;;;;;;11.88;6.68;;;8.80;99.90;;;;;;2088704;28;20245;-69
2023/05/09 02:11:11;;;;;;;9.10;6.20;;;8.80;99.90;;;;;;2093986;28;20416;-69
2023/05/09 02:12:11;;;;;;;10.40;6.85;;;8.80;99.90;;;;;;2101704;28;20038;-69
2023/05/09 02:13:12;;;;;;;8.45;6.15;;;8.80;99.90;;;;;;2098623;28;20032;-69
2023/05/09 02:14:13;;;;;;;10.55;6.88;;;8.80;99.90;;;;;;2096571;28;20094;-69
2023/05/09 02:15:14;;;;;;;8.45;6.72;;;8.80;99.90;;;;;;2095362;28;20151;-69
2023/05/09 02:16:15;;;;;;;10.15;6.47;;;8.70;99.90;;;;;;2087544;28;20384;-69
2023/05/09 02:17:16;;;;;;;11.02;6.55;;;8.70;99.90;;;;;;2092944;28;20028;-68
2023/05/09 02:18:17;;;;;;;9.60;6.65;;;8.70;99.90;;;;;;2094864;28;20518;-69
2023/05/09 02:19:18;;;;;;;9.70;6.85;;;8.70;99.90;;;;;;2096202;28;20181;-69
2023/05/09 02:20:18;;;;;;;8.45;6.25;;;8.70;99.90;;;;;;2093593;28;20077;-69
2023/05/09 02:21:19;;;;;;;8.32;6.60;;;8.70;99.90;;;;;;2093500;28;20039;-68
2023/05/09 02:22:20;;;;;;;8.57;6.20;;;8.70;99.90;;;;;;2101399;28;20402;-68
2023/05/09 02:23:21;;;;;;;9.18;6.47;;;8.60;99.90;;;;;;2095597;28;20402;-71
2023/05/09 02:24:21;;;;;;;10.77;6.50;;;8.60;99.90;;;;;;2096670;28;20020;-69
2023/05/09 02:25:22;;;;;;;8.93;6.90;;;8.60;99.90;;;;;;2082483;28;20486;-69
2023/05/09 02:26:24;;;;;;;9.98;6.85;;;8.60;99.90;;;;;;2086218;28;20037;-69
2023/05/09 02:27:26;;;;;;;8.25;6.40;;;8.60;99.90;;;;;;2094887;28;20094;-69
2023/05/09 02:28:27;;;;;;;10.60;6.68;;;8.60;99.90;;;;;;2095128;28;20032;-69
2023/05/09 02:29:38;;;;;;;9.02;6.63;;;8.60;99.90;;;;;;2088497;28;20065;-69
2023/05/09 02:30:43;;;;;;;10.15;6.90;;;8.60;99.90;;;;;;2094922;28;20139;-69
2023/05/09 02:31:45;;;;;;;8.98;6.07;;;8.50;99.90;;;;;;2099491;28;20024;-69
2023/05/09 02:32:49;;;;;;;9.40;6.10;;;8.60;99.90;;;;;;2091933;28;20020;-69
2023/05/09 02:33:52;;;;;;;9.55;6.60;;;8.50;99.90;;;;;;2102296;28;20526;-69
2023/05/09 02:34:54;;;;;;;8.98;6.45;;;8.50;99.90;;;;;;2101689;28;20097;-69
2023/05/09 02:35:56;;;;;;;9.63;6.68;;;8.50;99.90;;;;;;2102280;28;20027;-69
2023/05/09 02:36:57;;;;;;;10.05;6.90;;;8.50;99.90;;;;;;2103321;28;20547;-69
2023/05/09 02:37:58;;;;;;;9.60;6.90;;;8.50;99.90;;;;;;2086965;28;20028;-69
2023/05/09 02:39:00;;;;;;;9.65;6.28;;;8.50;99.90;;;;;;2092557;28;20078;-70
2023/05/09 02:40:07;;;;;;;8.93;6.55;;;8.50;99.90;;;;;;2092940;28;20028;-70
2023/05/09 02:41:15;;;;;;;9.60;6.57;;;8.50;99.90;;;;;;2100952;28;20043;-69
2023/05/09 02:42:20;;;;;;;9.70;6.95;;;8.50;99.90;;;;;;2097388;28;20081;-68
2023/05/09 02:43:21;;;;;;;8.02;6.60;;;8.40;99.90;;;;;;2099172;28;20027;-68
2023/05/09 02:44:22;;;;;;;10.15;6.43;;;8.50;99.90;;;;;;2104062;28;20015;-68
2023/05/09 02:45:23;;;;;;;9.57;6.47;;;8.40;99.90;;;;;;2092723;28;20806;-68
2023/05/09 02:46:24;;;;;;;9.18;6.75;;;8.40;99.90;;;;;;2093457;28;20032;-69
2023/05/09 02:47:25;;;;;;;9.02;6.25;;;8.40;99.90;;;;;;2101364;28;21126;-68
2023/05/09 02:48:25;;;;;;;13.48;6.63;;;8.40;99.90;;;;;;2097209;28;20395;-68
2023/05/09 02:49:26;;;;;;;8.45;6.50;;;8.40;99.90;;;;;;2084666;28;20039;-69
2023/05/09 02:50:26;;;;;;;8.88;6.45;;;8.40;99.90;;;;;;2085896;28;20028;-70
2023/05/09 02:51:27;;;;;;;8.30;6.45;;;8.40;99.90;;;;;;2103288;28;20790;-69
2023/05/09 02:52:27;;;;;;;8.55;6.28;;;8.30;99.90;;;;;;2104302;28;20068;-69
2023/05/09 02:53:28;;;;;;;9.45;6.00;;;8.40;99.90;;;;;;2101300;28;20031;-69
2023/05/09 02:54:29;;;;;;;8.55;6.53;;;8.40;99.90;;;;;;2101459;28;20054;-69
2023/05/09 02:55:30;;;;;;;10.02;6.57;;;8.30;99.90;;;;;;2101646;28;20310;-68
2023/05/09 02:56:31;;;;;;;9.70;6.30;;;8.30;99.90;;;;;;2105010;28;20024;-69
2023/05/09 02:57:32;;;;;;;9.13;6.70;;;8.30;99.90;;;;;;2093948;28;20054;-69
2023/05/09 02:58:32;;;;;;;8.85;6.30;;;8.30;99.90;;;;;;2101375;28;20027;-70
2023/05/09 02:59:33;;;;;;;8.38;6.50;;;8.30;99.90;;;;;;2099996;28;20378;-69
2023/05/09 03:00:36;;;;;;;10.15;5.95;;;8.30;99.90;;;;;;2094435;28;20495;-69
2023/05/09 03:01:39;;;;;;;11.43;6.13;;;8.30;99.90;;;;;;2081899;28;20127;-69
2023/05/09 03:02:40;;;;;;;9.82;6.30;;;8.30;99.90;;;;;;2088233;28;20024;-68
2023/05/09 03:03:45;;;;;;;7.70;6.22;;;8.30;99.90;;;;;;2091722;28;20032;-69
2023/05/09 03:04:46;;;;;;;11.13;6.60;;;8.20;99.90;;;;;;2089145;28;20033;-68
2023/05/09 03:05:47;;;;;;;7.63;6.03;;;8.20;99.90;;;;;;2098433;28;20133;-69
2023/05/09 03:06:48;;;;;;;9.48;6.15;;;8.20;99.90;;;;;;2094909;28;20032;-69
2023/05/09 03:07:50;;;;;;;9.02;6.30;;;8.20;99.90;;;;;;2095369;28;20034;-68
2023/05/09 03:08:50;;;;;;;9.85;6.82;;;8.20;99.90;;;;;;2094754;28;20128;-69
2023/05/09 03:09:51;;;;;;;9.23;6.60;;;8.30;99.90;;;;;;2094529;28;20498;-70
2023/05/09 03:10:52;;;;;;;9.43;6.57;;;8.20;99.90;;;;;;2102792;28;20443;-69
2023/05/09 03:11:53;;;;;;;9.48;6.53;;;8.20;99.90;;;;;;2096569;28;20024;-70
2023/05/09 03:12:54;;;;;;;8.55;6.43;;;8.20;99.90;;;;;;2098548;28;20027;-68
2023/05/09 03:13:55;;;;;;;8.88;6.65;;;8.20;99.90;;;;;;2099976;28;20028;-69
2023/05/09 03:14:56;;;;;;;12.63;6.72;;;8.20;99.90;;;;;;2101633;28;20540;-69
2023/05/09 03:15:56;;;;;;;7.75;6.20;;;8.20;99.90;;;;;;2095341;28;20025;-69
2023/05/09 03:16:57;;;;;;;8.40;6.35;;;8.20;99.90;;;;;;2092185;28;20032;-69
2023/05/09 03:18:03;;;;;;;9.77;6.38;;;8.20;99.90;;;;;;2089835;28;20245;-68
2023/05/09 03:19:04;;;;;;;9.18;6.30;;;8.10;99.90;;;;;;2093579;28;20040;-69
2023/05/09 03:20:06;;;;;;;8.93;6.50;;;8.20;99.90;;;;;;2102181;28;20061;-69
2023/05/09 03:21:07;;;;;;;9.38;6.25;;;8.10;99.90;;;;;;2090667;28;20242;-69
2023/05/09 03:22:10;;;;;;;8.65;6.40;;;8.10;99.90;;;;;;2094258;28;20028;-69
2023/05/09 03:23:16;;;;;;;12.75;6.07;;;8.10;99.90;;;;;;2094881;28;20053;-69
2023/05/09 03:24:17;;;;;;;10.05;6.22;;;8.10;99.90;;;;;;2101225;28;20100;-69
2023/05/09 03:25:18;;;;;;;9.38;6.25;;;8.10;99.90;;;;;;2104063;28;20089;-69
2023/05/09 03:26:19;;;;;;;9.05;6.38;;;8.10;99.90;;;;;;2093401;28;20546;-70
2023/05/09 03:27:20;;;;;;;10.45;6.20;;;8.10;99.90;;;;;;2088321;28;20037;-69
2023/05/09 03:28:22;;;;;;;8.98;6.82;;;8.10;99.90;;;;;;2085089;28;20549;-70
2023/05/09 03:29:23;;;;;;;9.07;6.47;;;8.10;99.90;;;;;;2086972;28;20037;-71
2023/05/09 03:30:23;;;;;;;9.05;6.72;;;8.10;99.90;;;;;;2095981;28;20032;-75
2023/05/09 03:31:24;;;;;;;9.95;6.85;;;8.10;99.90;;;;;;2101760;28;20119;-71
2023/05/09 03:32:26;;;;;;;8.02;6.35;;;8.10;99.90;;;;;;2102459;28;20070;-75
2023/05/09 03:33:26;;;;;;;9.25;6.75;;;8.10;99.90;;;;;;2102619;28;20019;-69
2023/05/09 03:34:28;;;;;;;8.48;6.68;;;8.10;99.90;;;;;;2103970;28;20038;-69
2023/05/09 03:35:29;;;;;;;10.70;6.65;;;8.10;99.90;;;;;;2101582;28;20498;-70
2023/05/09 03:36:31;;;;;;;9.40;6.57;;;8.10;99.90;;;;;;2101264;28;20089;-69
2023/05/09 03:37:31;;;;;;;10.70;6.50;;;8.10;99.90;;;;;;2092848;28;20020;-69
2023/05/09 03:38:32;;;;;;;9.35;6.53;;;8.10;99.90;;;;;;2088383;28;20036;-69
2023/05/09 03:39:32;;;;;;;7.80;6.30;;;8.20;99.90;;;;;;2091418;28;20023;-70
2023/05/09 03:40:33;;;;;;;8.32;6.22;;;8.20;99.90;;;;;;2093804;28;20024;-69
2023/05/09 03:41:41;;;;;;;9.45;6.35;;;8.20;99.90;;;;;;2102359;28;20078;-69
2023/05/09 03:42:42;;;;;;;8.27;6.68;;;8.10;99.90;;;;;;2094488;28;20028;-70
2023/05/09 03:43:43;;;;;;;8.52;6.70;;;8.20;99.90;;;;;;2094287;28;20039;-70
2023/05/09 03:44:46;;;;;;;9.00;6.60;;;8.20;99.90;;;;;;2091790;28;20434;-70
2023/05/09 03:45:46;;;;;;;10.48;6.72;;;8.20;99.90;;;;;;2089757;28;20025;-69
2023/05/09 03:46:48;;;;;;;8.45;6.47;;;8.20;99.90;;;;;;2099499;28;20135;-69
2023/05/09 03:47:49;;;;;;;8.70;6.30;;;8.20;99.90;;;;;;2093121;28;20074;-69
2023/05/09 03:48:50;;;;;;;9.05;5.95;;;8.20;99.90;;;;;;2103788;28;20452;-70
2023/05/09 03:49:52;;;;;;;7.93;6.13;;;8.10;99.90;;;;;;2091877;28;20031;-70
2023/05/09 03:50:55;;;;;;;12.65;6.55;;;8.10;99.90;;;;;;2090255;28;20035;-69
2023/05/09 03:51:57;;;;;;;8.40;6.22;;;8.20;99.90;;;;;;2093516;28;20036;-69
2023/05/09 03:53:00;;;;;;;12.70;6.30;;;8.10;99.90;;;;;;2094441;28;20026;-70
2023/05/09 03:54:01;;;;;;;8.25;6.72;;;8.20;99.90;;;;;;2089952;28;20431;-70
2023/05/09 03:55:02;;;;;;;10.50;6.60;;;8.20;99.90;;;;;;2103599;28;20506;-70
2023/05/09 03:56:07;;;;;;;11.65;6.53;;;8.20;99.90;;;;;;2093481;28;20028;-70
2023/05/09 03:57:13;;;;;;;10.77;6.28;;;8.20;99.90;;;;;;2094454;28;20040;-70
2023/05/09 03:58:14;;;;;;;7.47;5.95;;;8.20;99.90;;;;;;2092219;28;20048;-70
2023/05/09 03:59:16;;;;;;;10.52;6.40;;;8.20;99.90;;;;;;2096091;28;20558;-70
2023/05/09 04:00:17;;;;;;;9.68;6.28;;;8.20;99.90;;;;;;2097696;28;20028;-70
2023/05/09 04:01:29;;;;;;;8.85;6.32;;;8.20;99.90;;;;;;2091376;28;20119;-70
2023/05/09 04:02:33;;;;;;;8.85;6.07;;;8.20;99.90;;;;;;2091444;28;20044;-70
2023/05/09 04:03:33;;;;;;;7.88;6.20;;;8.30;99.90;;;;;;2096183;28;20079;-70
2023/05/09 04:04:34;;;;;;;8.38;6.15;;;8.20;99.90;;;;;;2095263;28;20591;-69
2023/05/09 04:05:35;;;;;;;8.82;6.40;;;8.30;99.90;;;;;;2095236;28;20023;-69
2023/05/09 04:06:38;;;;;;;7.20;6.10;;;8.30;99.90;;;;;;2095695;28;20016;-70
2023/05/09 04:07:42;;;;;;;10.48;6.30;;;8.30;99.90;;;;;;2095974;28;20421;-69
2023/05/09 04:08:43;;;;;;;8.55;5.97;;;8.30;99.90;;;;;;2096608;28;20020;-70
2023/05/09 04:09:43;;;;;;;9.20;6.15;;;8.30;99.90;;;;;;2095285;28;20081;-70
2023/05/09 04:10:44;;;;;;;8.40;6.18;;;8.40;99.90;;;;;;2103353;28;20058;-70
2023/05/09 04:11:45;;;;;;;8.57;6.10;;;8.40;99.90;;;;;;2102287;28;20033;-70
2023/05/09 04:12:47;;;;;;;7.55;5.80;;;8.40;99.90;;;;;;2089413;28;20028;-70
2023/05/09 04:13:50;;;;;;;7.78;5.80;;;8.60;99.90;;;;;;2083693;28;20025;-71
2023/05/09 04:15:02;;;;;;;7.38;5.60;;;8.90;99.90;;;;;;2085116;28;20031;-70
2023/05/09 04:16:04;;;;;;;9.32;5.97;;;9.30;99.90;;;;;;2083520;28;20515;-70
2023/05/09 04:17:06;;;;;;;7.25;5.40;;;9.80;99.90;;;;;;2091189;28;20138;-70
2023/05/09 04:18:07;;;;;;;7.75;5.18;;;10.20;99.90;;;;;;2101495;28;20572;-70
2023/05/09 04:19:08;;;;;;;9.20;5.20;;;10.60;99.90;;;;;;2092927;28;20515;-71
2023/05/09 04:20:10;;;;;;;6.53;5.18;;;11.00;99.90;;;;;;2089336;28;20494;-70
2023/05/09 04:21:11;;;;;;;7.63;5.07;;;11.40;99.90;;;;;;2093904;28;20558;-71
2023/05/09 04:22:12;;;;;;;6.50;4.57;;;11.70;99.90;;;;;;2094352;28;20411;-70
2023/05/09 04:23:13;;;;;;;7.45;4.72;;;12.00;99.90;;;;;;2105161;28;20396;-71
2023/05/09 04:24:13;;;;;;;5.03;4.45;;;12.30;99.20;;;;;;2100328;28;20016;-70
2023/05/09 04:25:20;;;;;;;8.30;4.93;;;12.60;97.30;;;;;;2093474;28;20565;-70
2023/05/09 04:26:23;;;;;;;7.95;4.75;;;12.80;94.30;;;;;;2100056;28;20112;-70
2023/05/09 04:27:27;;;;;;;6.28;4.57;;;13.00;93.10;;;;;;2094432;28;20113;-70
2023/05/09 04:28:28;;;;;;;5.10;4.60;;;13.20;91.70;;;;;;2086119;28;20028;-70
2023/05/09 04:29:30;;;;;;;9.40;5.60;;;13.40;91.10;;;;;;2092537;28;20037;-70
2023/05/09 04:30:31;;;;;;;7.82;5.32;;;13.60;90.20;;;;;;2095780;28;20021;-70
2023/05/09 04:31:32;;;;;;;6.85;5.28;;;13.80;87.10;;;;;;2088829;28;20023;-72
2023/05/09 04:32:34;;;;;;;6.45;4.93;;;13.90;84.30;;;;;;2094071;28;20541;-71
2023/05/09 04:33:35;;;;;;;9.10;5.82;;;14.00;83.40;;;;;;2094385;28;20028;-70
2023/05/09 04:34:37;;;;;;;6.70;4.93;;;14.20;81.80;;;;;;2090941;28;20032;-70
2023/05/09 04:35:45;;;;;;;9.65;6.38;;;14.30;80.40;;;;;;2087832;28;20057;-70
2023/05/09 04:36:46;;;;;;;7.13;5.13;;;14.40;78.20;;;;;;2102414;28;20109;-70
2023/05/09 04:37:47;;;;;;;7.47;5.10;;;14.30;76.30;;;;;;2103721;28;20024;-71
2023/05/09 04:38:48;;;;;;;6.40;4.93;;;14.40;75.90;;;;;;2096149;28;20783;-71
2023/05/09 04:39:52;;;;;;;6.78;5.20;;;14.30;75.20;;;;;;2103803;28;20497;-71
2023/05/09 04:41:01;;;;;;;6.50;4.68;;;14.50;75.20;;;;;;2095450;28;20044;-71
2023/05/09 04:42:03;;;;;;;7.43;4.90;;;14.60;74.10;;;;;;2088326;28;20036;-71
2023/05/09 04:43:04;;;;;;;6.28;4.60;;;14.70;75.00;;;;;;2095356;28;20070;-70
2023/05/09 04:44:05;;;;;;;6.47;4.75;;;14.80;73.20;;;;;;2096657;28;20028;-70
2023/05/09 04:45:06;;;;;;;5.88;4.05;;;14.80;72.30;;;;;;2094396;28;20415;-71
2023/05/09 04:46:07;;;;;;;6.18;4.75;;;14.80;72.20;;;;;;2094206;28;20034;-71
2023/05/09 04:47:08;;;;;;;7.22;4.32;;;14.90;71.80;;;;;;2094709;28;20036;-71
2023/05/09 04:48:09;;;;;;;7.05;4.20;;;15.10;71.40;;;;;;2102972;28;20043;-70
2023/05/09 04:49:09;;;;;;;5.72;4.28;;;15.20;71.10;;;;;;2097585;28;20036;-71
2023/05/09 04:50:10;;;;;;;10.32;4.80;;;15.40;70.50;;;;;;2093426;28;20037;-71
2023/05/09 04:51:11;;;;;;;14.27;8.90;;;15.60;69.20;;;;;;2085777;28;20025;-71
2023/05/09 04:52:11;;;;;;;9.88;6.90;;;15.70;68.00;;;;;;2104157;28;20032;-70
2023/05/09 04:53:12;;;;;;;7.47;5.75;;;15.70;67.10;;;;;;2096637;28;20642;-71
2023/05/09 04:54:13;;;;;;;7.00;5.00;;;15.70;66.80;;;;;;2099605;28;20051;-71
2023/05/09 04:55:15;;;;;;;6.93;4.95;;;15.90;66.60;;;;;;2094142;28;20028;-71
2023/05/09 04:56:19;;;;;;;8.88;4.45;;;15.90;65.40;;;;;;2094706;28;20152;-71
2023/05/09 04:57:21;;;;;;;6.18;4.50;;;16.00;65.10;;;;;;2094121;28;20078;-71
2023/05/09 04:58:27;;;;;;;7.00;4.35;;;16.10;64.90;;;;;;2094586;28;20507;-70
2023/05/09 04:59:30;;;;;;;7.00;4.38;;;16.10;64.10;;;;;;2102317;28;20028;-71
2023/05/09 05:00:31;;;;;;;7.88;4.30;;;16.20;64.40;;;;;;2105250;28;20565;-71
2023/05/09 05:01:32;;;;;;;7.15;4.53;;;16.20;63.20;;;;;;2097224;28;20062;-70
2023/05/09 05:02:33;;;;;;;7.00;4.38;;;16.20;63.40;;;;;;2087472;28;20139;-70
2023/05/09 05:03:34;;;;;;;7.43;4.32;;;16.30;63.30;;;;;;2103735;28;20027;-70
2023/05/09 05:04:35;;;;;;;6.88;4.78;;;16.50;62.50;;;;;;2104804;28;20027;-70
2023/05/09 05:05:36;;;;;;;6.13;4.10;;;16.50;61.90;;;;;;2093989;28;20024;-71
2023/05/09 05:06:37;;;;;;;6.68;4.20;;;16.50;61.70;;;;;;2086239;28;20020;-69
2023/05/09 05:07:38;;;;;;;7.68;4.65;;;16.60;60.90;;;;;;2084432;28;20032;-69
2023/05/09 05:08:39;;;;;;;6.53;4.28;;;16.50;60.70;;;;;;2093566;28;20114;-69
2023/05/09 05:09:39;;;;;;;4.95;3.90;;;16.40;61.10;;;;;;2100964;28;20031;-70
2023/05/09 05:10:40;;;;;;;4.50;3.80;;;16.50;61.20;;;;;;2090465;28;20035;-70
2023/05/09 05:11:44;;;;;;;4.95;3.75;;;16.60;61.20;;;;;;2092215;28;20028;-70
2023/05/09 05:12:45;;;;;;;7.68;4.60;;;16.70;61.00;;;;;;2095357;28;20031;-70
2023/05/09 05:13:47;;;;;;;8.30;4.32;;;16.70;60.20;;;;;;2094615;28;20767;-69
2023/05/09 05:14:48;;;;;;;6.45;4.97;;;16.60;60.10;;;;;;2092067;28;20024;-69
2023/05/09 05:15:52;;;;;;;7.88;4.55;;;16.50;59.80;;;;;;2089021;28;20120;-69
2023/05/09 05:16:54;;;;;;;6.72;4.10;;;16.30;60.20;;;;;;2098957;28;20277;-69
2023/05/09 05:17:57;;;;;;;6.32;4.43;;;16.20;60.80;;;;;;2093712;28;20028;-69
2023/05/09 05:19:04;;;;;;;7.13;4.43;;;16.20;60.60;;;;;;2094699;28;20032;-69
2023/05/09 05:20:09;;;;;;;6.68;4.50;;;16.00;61.00;;;;;;2092139;28;20060;-69
2023/05/09 05:21:15;;;;;;;6.00;3.90;;;16.20;61.40;;;;;;2090355;28;20036;-70
2023/05/09 05:22:17;;;;;;;7.47;4.18;;;16.30;60.70;;;;;;2094137;28;20052;-69
2023/05/09 05:23:19;;;;;;;6.57;4.53;;;16.30;60.70;;;;;;2092918;28;20663;-69
2023/05/09 05:24:20;;;;;;;5.68;4.70;;;16.30;60.50;;;;;;2094721;28;20031;-69
2023/05/09 05:25:21;;;;;;;7.72;4.78;;;16.40;60.30;;;;;;2103551;28;20042;-69
2023/05/09 05:26:24;;;;;;;8.32;4.70;;;16.30;60.20;;;;;;2103220;28;20034;-70
2023/05/09 05:27:25;;;;;;;7.15;4.78;;;16.50;60.50;;;;;;2104829;28;20493;-71
2023/05/09 05:28:26;;;;;;;6.53;4.30;;;16.50;60.30;;;;;;2093924;28;20114;-70